Aeroporto :
LOGIN :

Iscrizione | Disclaimer

   EN    FR    IT 

 










Sommario :    VFR   VFR Marginale   IFR   IFR Intensivo   IFR Molto Intensivo
Visibilità : 
Base nubi : 
>= 8 km
>= 3000ft
5 / 8 km
1000 / 3000 ft
1500m / 5 km
500 / 1000 ft
800 / 1500m
200 / 500 ft
< 800m
< 200 ft
Simboli :   Temporali  Nebbia  Neve Forte  Precipitazioni Forti  Vento > 20 kt
SIGMETs :   Varie  Temporali  Ghiacco  Turbolenza  Onda orograficha  Ceneri Vulcaniche






- Altitudine del aeroporto : 327 ft
- Codice IATA : BHX


EGBB - Birmingham

ULTIMO METAR :
  • 171220Z 33008KT 7000 BKN010 08/07 Q1011

METARs OBSOLETI :
  • 171150Z 34005KT 7000 BKN010 08/07 Q1011
  • 171120Z 35005KT 6000 BKN009 08/07 Q1011
  • 171050Z 32006KT 5000 BR BKN008 07/07 Q1011
  • 171020Z 33005KT 5000 BR OVC006 07/07 Q1011
  • 170950Z 35004KT 5000 BR OVC006 07/07 Q1011

TAF TAF EGBB
Valido dal 17 a 12 ore il 18 a 12 ore UTC


171103Z 1712/1812 35006KT 4000 BR BKN006
BECMG 1712/1715 8000 -RA FEW006 SCT030
TEMPO 1715/1724 4000 RADZ BR BKN006
BECMG 1721/1724 9999 NSW
PROB30
TEMPO 1800/1809 8000 BKN006
ATIS : +44 121 780 0910



MetMap, La meteo Aeronautica in un colpo d'occhio ! - Copyright ORBIFLY Dicembre 2007 - Disclaimer

ORBIFLY MET'MAP TEAM :

Programmazione e sviluppo : Alexandra Zaïnal
Concezione e sviluppo : Baudouin d'Aumeries
Co-Programmazione e sviluppo : Marc-Olivier Méhu
Supporto tecnico e logistico : Manuel Goepfert
Aiuto per la traduzione : Arnaldo La Scala

Contatto : metmap@orbifly.com




FONTI E CREDITI :

   NOAA